createdAt,value
2023-05-20T00:00:35.265Z,0.00
2023-05-20T00:01:35.240Z,0.00
2023-05-20T00:02:35.277Z,0.00
2023-05-20T00:03:35.460Z,0.00
2023-05-20T00:04:35.273Z,0.00
2023-05-20T00:05:35.190Z,0.00
2023-05-20T00:06:35.238Z,0.00
2023-05-20T00:07:35.168Z,0.00
2023-05-20T00:08:35.163Z,0.00
2023-05-20T00:09:35.152Z,0.00
2023-05-20T00:10:35.144Z,0.00
2023-05-20T00:11:35.128Z,0.00
2023-05-20T00:12:35.123Z,0.00
2023-05-20T00:13:35.111Z,0.00
2023-05-20T00:14:35.105Z,0.00
2023-05-20T00:15:35.332Z,0.00
2023-05-20T00:16:35.093Z,0.00
2023-05-20T00:17:35.075Z,0.00
2023-05-20T00:18:35.060Z,0.00
2023-05-20T00:19:35.046Z,0.00
2023-05-20T00:20:35.029Z,0.00
2023-05-20T00:21:35.025Z,0.00
2023-05-20T00:22:35.002Z,0.00
2023-05-20T00:23:35.009Z,0.00
2023-05-20T00:24:34.987Z,0.00
2023-05-20T00:25:35.379Z,0.00
2023-05-20T00:26:34.967Z,0.00
2023-05-20T00:27:34.958Z,0.00
2023-05-20T00:28:34.956Z,0.00
2023-05-20T00:29:34.941Z,0.00
2023-05-20T00:30:34.920Z,0.00
2023-05-20T00:31:34.917Z,0.00
2023-05-20T00:32:34.922Z,0.00
2023-05-20T00:33:34.889Z,0.00
2023-05-20T00:34:34.877Z,0.00
2023-05-20T00:35:35.112Z,0.00
2023-05-20T00:36:34.850Z,0.00
2023-05-20T00:37:34.847Z,0.00
2023-05-20T00:38:34.828Z,0.00
2023-05-20T00:39:34.812Z,0.00
2023-05-20T00:40:34.807Z,0.00
2023-05-20T00:41:34.788Z,0.00
2023-05-20T00:42:34.798Z,0.00
2023-05-20T00:43:34.767Z,0.00
2023-05-20T00:44:34.766Z,0.00
2023-05-20T00:45:34.955Z,0.00
2023-05-20T00:46:34.863Z,0.00
2023-05-20T00:47:34.762Z,0.00
2023-05-20T00:48:34.710Z,0.00
2023-05-20T00:49:34.707Z,0.00
2023-05-20T00:50:34.698Z,0.00
2023-05-20T00:51:34.690Z,0.00
2023-05-20T00:52:34.683Z,0.00
2023-05-20T00:53:34.657Z,0.00
2023-05-20T00:54:34.652Z,0.00
2023-05-20T00:55:34.800Z,0.00
2023-05-20T00:56:34.640Z,0.00
2023-05-20T00:57:34.618Z,0.00
2023-05-20T00:58:34.605Z,0.00
2023-05-20T00:59:34.588Z,0.00
2023-05-20T01:00:34.592Z,0.00
2023-05-20T01:01:34.612Z,0.00
2023-05-20T01:02:34.625Z,0.00
2023-05-20T01:03:34.808Z,0.00
2023-05-20T01:04:34.534Z,0.00
2023-05-20T01:05:34.783Z,0.00
2023-05-20T01:06:34.520Z,0.00
2023-05-20T01:07:34.499Z,0.00
2023-05-20T01:08:34.492Z,0.00
2023-05-20T01:09:34.490Z,0.00
2023-05-20T01:10:34.475Z,0.00
2023-05-20T01:11:34.465Z,0.00
2023-05-20T01:12:34.445Z,0.00
2023-05-20T01:13:34.442Z,0.00
2023-05-20T01:14:34.432Z,0.00
2023-05-20T01:15:34.599Z,0.00
2023-05-20T01:16:34.446Z,0.00
2023-05-20T01:17:34.431Z,0.00
2023-05-20T01:18:34.384Z,0.00
2023-05-20T01:19:34.381Z,0.00
2023-05-20T01:20:34.354Z,0.00
2023-05-20T01:21:34.344Z,0.00
2023-05-20T01:22:34.334Z,0.00
2023-05-20T01:23:34.330Z,0.00
2023-05-20T01:24:34.372Z,0.00
2023-05-20T01:25:34.570Z,0.00
2023-05-20T01:26:34.288Z,0.00
2023-05-20T01:27:34.280Z,0.00
2023-05-20T01:28:34.283Z,0.00
2023-05-20T01:29:34.268Z,0.00
2023-05-20T01:30:34.249Z,0.00
2023-05-20T01:31:34.257Z,0.00
2023-05-20T01:32:34.249Z,0.00
2023-05-20T01:33:34.225Z,0.00
2023-05-20T01:34:34.196Z,0.00
2023-05-20T01:35:34.326Z,0.00
2023-05-20T01:36:34.189Z,0.00
2023-05-20T01:37:34.176Z,0.00
2023-05-20T01:38:34.168Z,0.00
2023-05-20T01:39:34.146Z,0.00
2023-05-20T01:40:34.167Z,0.00
2023-05-20T01:41:34.123Z,0.00
2023-05-20T01:42:34.129Z,0.00
2023-05-20T01:43:34.112Z,0.00
2023-05-20T01:44:34.109Z,0.00
2023-05-20T01:45:34.275Z,0.00
2023-05-20T01:46:34.251Z,0.00
2023-05-20T01:47:34.085Z,0.00
2023-05-20T01:48:34.053Z,0.00
2023-05-20T01:49:34.038Z,0.00
2023-05-20T01:50:34.052Z,0.00
2023-05-20T01:51:34.017Z,0.00
2023-05-20T01:52:34.033Z,0.00
2023-05-20T01:53:34.021Z,0.00
2023-05-20T01:54:34.004Z,0.00
2023-05-20T01:55:34.119Z,0.00
2023-05-20T01:56:33.976Z,0.00
2023-05-20T01:57:33.968Z,0.00
2023-05-20T01:58:33.941Z,0.00
2023-05-20T01:59:33.923Z,0.00
2023-05-20T02:00:33.957Z,0.00
2023-05-20T02:01:33.945Z,0.00
2023-05-20T02:02:34.098Z,0.00
2023-05-20T02:03:33.884Z,0.00
2023-05-20T02:04:33.905Z,0.00
2023-05-20T02:05:34.144Z,0.00
2023-05-20T02:06:33.868Z,0.00
2023-05-20T02:07:33.836Z,0.00
2023-05-20T02:08:33.850Z,0.00
2023-05-20T02:09:33.824Z,0.00
2023-05-20T02:10:33.825Z,0.00
2023-05-20T02:11:33.793Z,0.00
2023-05-20T02:12:33.788Z,0.00
2023-05-20T02:13:33.770Z,0.00
2023-05-20T02:14:33.766Z,0.00
2023-05-20T02:15:34.236Z,0.00
2023-05-20T02:16:33.814Z,0.00
2023-05-20T02:17:33.762Z,0.00
2023-05-20T02:18:33.723Z,0.00
2023-05-20T02:19:33.725Z,0.00
2023-05-20T02:20:33.712Z,0.00
2023-05-20T02:21:33.689Z,0.00
2023-05-20T02:22:33.688Z,0.00
2023-05-20T02:23:33.669Z,0.00
2023-05-20T02:24:33.670Z,0.00
2023-05-20T02:25:33.964Z,0.00
2023-05-20T02:26:33.639Z,0.00
2023-05-20T02:27:33.623Z,0.00
2023-05-20T02:28:33.643Z,0.00
2023-05-20T02:29:33.608Z,0.00
2023-05-20T02:30:33.599Z,0.00
2023-05-20T02:31:33.579Z,0.00
2023-05-20T02:32:33.676Z,0.00
2023-05-20T02:33:33.621Z,0.00
2023-05-20T02:34:33.662Z,0.00
2023-05-20T02:35:33.748Z,0.00
2023-05-20T02:36:33.528Z,0.00
2023-05-20T02:37:33.510Z,0.00
2023-05-20T02:38:33.516Z,0.00
2023-05-20T02:39:33.489Z,0.00
2023-05-20T02:40:33.493Z,0.00
2023-05-20T02:41:33.470Z,0.00
2023-05-20T02:42:33.469Z,0.00
2023-05-20T02:43:33.460Z,0.00
2023-05-20T02:44:33.441Z,0.00
2023-05-20T02:45:33.422Z,0.00
2023-05-20T02:46:33.456Z,0.00
2023-05-20T02:47:33.433Z,0.00
2023-05-20T02:48:33.405Z,0.00
2023-05-20T02:49:33.377Z,0.00
2023-05-20T02:50:33.368Z,0.00
2023-05-20T02:51:33.385Z,0.00
2023-05-20T02:52:33.362Z,0.00
2023-05-20T02:53:33.331Z,0.00
2023-05-20T02:54:33.337Z,0.00
2023-05-20T02:55:33.534Z,0.00
2023-05-20T02:56:33.309Z,4.00
2023-05-20T02:57:33.305Z,4.00
2023-05-20T02:58:33.286Z,4.00
2023-05-20T02:59:33.272Z,0.00
2023-05-20T03:00:33.258Z,4.00
2023-05-20T03:01:33.276Z,4.00
2023-05-20T03:02:33.257Z,4.00
2023-05-20T03:03:33.219Z,4.00
2023-05-20T03:04:33.236Z,4.00
2023-05-20T03:05:33.337Z,4.00
2023-05-20T03:06:33.206Z,8.00
2023-05-20T03:07:33.187Z,8.00
2023-05-20T03:08:33.177Z,8.00
2023-05-20T03:09:33.153Z,12.00
2023-05-20T03:10:33.147Z,12.00
2023-05-20T03:11:33.150Z,12.00
2023-05-20T03:12:33.123Z,12.00
2023-05-20T03:13:33.111Z,16.00
2023-05-20T03:14:33.120Z,16.00
2023-05-20T03:15:33.302Z,20.00
2023-05-20T03:16:33.198Z,24.00
2023-05-20T03:17:33.113Z,20.00
2023-05-20T03:18:33.061Z,24.00
2023-05-20T03:19:33.076Z,28.00
2023-05-20T03:20:33.054Z,32.00
2023-05-20T03:21:33.036Z,36.00
2023-05-20T03:22:33.012Z,36.00
2023-05-20T03:23:32.990Z,40.00
2023-05-20T03:24:32.998Z,44.00
2023-05-20T03:25:33.324Z,48.00
2023-05-20T03:26:32.966Z,52.00
2023-05-20T03:27:32.950Z,56.00
2023-05-20T03:28:32.959Z,60.00
2023-05-20T03:29:32.932Z,68.00
2023-05-20T03:30:32.951Z,72.00
2023-05-20T03:31:32.961Z,80.00
2023-05-20T03:32:32.954Z,88.00
2023-05-20T03:33:32.883Z,96.00
2023-05-20T03:34:32.893Z,104.00
2023-05-20T03:35:33.113Z,112.00
2023-05-20T03:36:32.850Z,124.00
2023-05-20T03:37:32.841Z,128.00
2023-05-20T03:38:32.846Z,140.00
2023-05-20T03:39:32.839Z,152.00
2023-05-20T03:40:32.816Z,160.00
2023-05-20T03:41:32.843Z,172.00
2023-05-20T03:42:32.793Z,184.00
2023-05-20T03:43:32.779Z,196.00
2023-05-20T03:44:32.791Z,208.00
2023-05-20T03:45:32.829Z,224.00
2023-05-20T03:46:32.790Z,236.00
2023-05-20T03:47:32.781Z,252.00
2023-05-20T03:48:32.729Z,268.00
2023-05-20T03:49:32.709Z,280.00
2023-05-20T03:50:32.716Z,300.00
2023-05-20T03:51:32.686Z,316.00
2023-05-20T03:52:32.674Z,332.00
2023-05-20T03:53:32.673Z,352.00
2023-05-20T03:54:32.653Z,372.00
2023-05-20T03:55:32.802Z,392.00
2023-05-20T03:56:32.634Z,412.00
2023-05-20T03:57:32.616Z,436.00
2023-05-20T03:58:32.622Z,456.00
2023-05-20T03:59:32.612Z,484.00
2023-05-20T04:00:32.592Z,504.00
2023-05-20T04:01:32.670Z,524.00
2023-05-20T04:02:32.630Z,540.00
2023-05-20T04:03:32.709Z,560.00
2023-05-20T04:04:32.565Z,584.00
2023-05-20T04:05:32.640Z,604.00
2023-05-20T04:06:32.531Z,624.00
2023-05-20T04:07:32.514Z,644.00
2023-05-20T04:08:32.510Z,668.00
2023-05-20T04:09:32.495Z,696.00
2023-05-20T04:10:32.474Z,716.00
2023-05-20T04:11:32.465Z,732.00
2023-05-20T04:12:32.468Z,752.00
2023-05-20T04:13:32.445Z,772.00
2023-05-20T04:14:33.821Z,784.00
2023-05-20T04:15:32.497Z,800.00
2023-05-20T04:16:32.465Z,812.00
2023-05-20T04:17:32.582Z,836.00
2023-05-20T04:18:32.436Z,848.00
2023-05-20T04:19:32.421Z,868.00
2023-05-20T04:20:32.433Z,888.00
2023-05-20T04:21:32.365Z,908.00
2023-05-20T04:22:32.398Z,932.00
2023-05-20T04:23:32.329Z,952.00
2023-05-20T04:24:32.318Z,972.00
2023-05-20T04:25:32.485Z,1016.00
2023-05-20T04:26:32.352Z,1032.00
2023-05-20T04:27:32.395Z,1056.00
2023-05-20T04:28:32.329Z,1088.00
2023-05-20T04:29:32.264Z,1108.00
2023-05-20T04:30:32.284Z,1148.00
2023-05-20T04:31:32.303Z,1176.00
2023-05-20T04:32:32.343Z,1212.00
2023-05-20T04:33:32.220Z,1236.00
2023-05-20T04:34:32.211Z,1268.00
2023-05-20T04:35:32.316Z,1296.00
2023-05-20T04:36:32.204Z,1308.00
2023-05-20T04:37:32.196Z,1340.00
2023-05-20T04:38:32.165Z,1364.00
2023-05-20T04:39:32.148Z,1372.00
2023-05-20T04:40:32.146Z,1372.00
2023-05-20T04:41:32.138Z,1388.00
2023-05-20T04:42:32.144Z,1396.00
2023-05-20T04:43:32.108Z,1400.00
2023-05-20T04:44:32.113Z,1404.00
2023-05-20T04:45:32.173Z,1412.00
2023-05-20T04:46:32.174Z,1396.00
2023-05-20T04:47:32.076Z,1376.00
2023-05-20T04:48:32.075Z,1368.00
2023-05-20T04:49:32.040Z,1356.00
2023-05-20T04:50:32.187Z,1356.00
2023-05-20T04:51:32.066Z,1344.00
2023-05-20T04:52:31.999Z,1340.00
2023-05-20T04:53:32.004Z,1332.00
2023-05-20T04:54:32.508Z,1332.00
2023-05-20T04:55:32.106Z,1336.00
2023-05-20T04:56:31.972Z,1332.00
2023-05-20T04:57:31.958Z,1336.00
2023-05-20T04:58:31.935Z,1344.00
2023-05-20T04:59:31.945Z,1352.00
2023-05-20T05:00:31.913Z,1356.00
2023-05-20T05:01:31.962Z,1364.00
2023-05-20T05:02:31.914Z,1376.00
2023-05-20T05:03:34.473Z,1380.00
2023-05-20T05:04:31.935Z,1392.00
2023-05-20T05:05:32.049Z,1404.00
2023-05-20T05:06:31.853Z,1428.00
2023-05-20T05:07:31.842Z,1440.00
2023-05-20T05:08:31.840Z,1452.00
2023-05-20T05:09:33.114Z,1468.00
2023-05-20T05:10:31.810Z,1480.00
2023-05-20T05:11:31.884Z,1492.00
2023-05-20T05:12:31.786Z,1512.00
2023-05-20T05:13:31.787Z,1536.00
2023-05-20T05:14:31.762Z,1540.00
2023-05-20T05:15:31.858Z,1556.00
2023-05-20T05:16:31.800Z,1556.00
2023-05-20T05:17:31.784Z,1564.00
2023-05-20T05:18:31.741Z,1576.00
2023-05-20T05:19:31.719Z,1572.00
2023-05-20T05:20:31.790Z,1584.00
2023-05-20T05:21:31.938Z,1580.00
2023-05-20T05:22:31.907Z,1580.00
2023-05-20T05:23:31.683Z,1572.00
2023-05-20T05:24:31.654Z,1564.00
2023-05-20T05:25:31.773Z,1552.00
2023-05-20T05:26:31.635Z,1544.00
2023-05-20T05:27:31.651Z,1544.00
2023-05-20T05:28:31.621Z,1528.00
2023-05-20T05:29:31.628Z,1528.00
2023-05-20T05:30:31.589Z,1516.00
2023-05-20T05:31:31.582Z,1504.00
2023-05-20T05:32:31.710Z,1496.00
2023-05-20T05:33:31.674Z,1484.00
2023-05-20T05:34:31.551Z,1480.00
2023-05-20T05:35:31.596Z,1480.00
2023-05-20T05:36:31.529Z,1472.00
2023-05-20T05:37:31.525Z,1456.00
2023-05-20T05:38:31.493Z,1452.00
2023-05-20T05:39:31.498Z,1448.00
2023-05-20T05:40:31.481Z,1440.00
2023-05-20T05:41:31.481Z,1444.00
2023-05-20T05:42:31.481Z,1448.00
2023-05-20T05:43:31.455Z,1452.00
2023-05-20T05:44:31.429Z,1452.00
2023-05-20T05:45:31.623Z,1460.00
2023-05-20T05:46:31.618Z,1480.00
2023-05-20T05:47:31.443Z,1480.00
2023-05-20T05:48:31.387Z,1500.00
2023-05-20T05:49:31.376Z,1492.00
2023-05-20T05:50:31.386Z,1508.00
2023-05-20T05:51:31.374Z,1528.00
2023-05-20T05:52:31.346Z,2860.00
2023-05-20T05:53:31.329Z,1576.00
2023-05-20T05:54:31.327Z,1580.00
2023-05-20T05:55:31.374Z,1568.00
2023-05-20T05:56:31.322Z,1572.00
2023-05-20T05:57:31.292Z,1584.00
2023-05-20T05:58:31.277Z,1588.00
2023-05-20T05:59:31.262Z,1604.00
2023-05-20T06:00:31.264Z,1608.00
2023-05-20T06:01:31.250Z,1612.00
2023-05-20T06:02:31.302Z,1624.00
2023-05-20T06:03:31.348Z,1648.00
2023-05-20T06:04:31.275Z,1804.00
2023-05-20T06:05:31.292Z,1644.00
2023-05-20T06:06:31.188Z,1656.00
2023-05-20T06:07:31.182Z,1664.00
2023-05-20T06:08:31.171Z,1676.00
2023-05-20T06:09:31.153Z,1692.00
2023-05-20T06:10:31.162Z,1700.00
2023-05-20T06:11:31.134Z,1700.00
2023-05-20T06:12:31.127Z,1708.00
2023-05-20T06:13:31.106Z,1704.00
2023-05-20T06:14:31.111Z,1704.00
2023-05-20T06:15:31.094Z,1708.00
2023-05-20T06:16:31.081Z,1716.00
2023-05-20T06:17:31.103Z,1724.00
2023-05-20T06:18:31.052Z,1728.00
2023-05-20T06:19:31.101Z,1728.00
2023-05-20T06:20:31.101Z,1716.00
2023-05-20T06:21:31.014Z,1692.00
2023-05-20T06:22:31.022Z,1652.00
2023-05-20T06:23:30.993Z,1708.00
2023-05-20T06:24:31.006Z,1660.00
2023-05-20T06:25:31.039Z,1688.00
2023-05-20T06:26:30.965Z,1740.00
2023-05-20T06:27:30.986Z,1756.00
2023-05-20T06:28:30.955Z,1756.00
2023-05-20T06:29:30.952Z,1776.00
2023-05-20T06:30:30.915Z,1768.00
2023-05-20T06:31:31.048Z,1756.00
2023-05-20T06:32:30.959Z,1872.00
2023-05-20T06:33:30.891Z,1756.00
2023-05-20T06:34:30.979Z,1760.00
2023-05-20T06:35:30.867Z,1752.00
2023-05-20T06:36:33.015Z,1748.00
2023-05-20T06:37:30.863Z,1744.00
2023-05-20T06:38:30.847Z,1744.00
2023-05-20T06:39:30.829Z,1748.00
2023-05-20T06:40:30.813Z,1748.00
2023-05-20T06:41:30.798Z,1752.00
2023-05-20T06:42:30.802Z,1736.00
2023-05-20T06:43:30.779Z,1744.00
2023-05-20T06:44:30.766Z,1836.00
2023-05-20T06:45:30.765Z,1740.00
2023-05-20T06:46:31.082Z,1760.00
2023-05-20T06:47:31.108Z,1740.00
2023-05-20T06:48:31.963Z,1772.00
2023-05-20T06:49:30.918Z,1752.00
2023-05-20T06:50:30.935Z,1752.00
2023-05-20T06:51:30.955Z,1760.00
2023-05-20T06:52:30.701Z,1764.00
2023-05-20T06:53:30.667Z,1764.00
2023-05-20T06:54:30.655Z,1784.00
2023-05-20T06:55:30.641Z,1780.00
2023-05-20T06:56:30.644Z,1800.00
2023-05-20T06:57:30.631Z,1860.00
2023-05-20T06:58:30.612Z,1828.00
2023-05-20T06:59:30.608Z,1832.00
2023-05-20T07:00:30.646Z,1868.00
2023-05-20T07:01:30.621Z,1836.00
2023-05-20T07:02:30.632Z,1836.00
2023-05-20T07:03:30.598Z,1840.00
2023-05-20T07:04:30.549Z,1848.00
2023-05-20T07:05:30.529Z,1736.00
2023-05-20T07:06:30.538Z,1860.00
2023-05-20T07:07:30.522Z,1852.00
2023-05-20T07:08:30.506Z,1952.00
2023-05-20T07:09:30.492Z,1960.00
2023-05-20T07:10:30.490Z,2036.00
2023-05-20T07:11:30.480Z,1912.00
2023-05-20T07:12:30.450Z,2052.00
2023-05-20T07:13:30.445Z,2248.00
2023-05-20T07:14:30.427Z,2372.00
2023-05-20T07:15:30.444Z,2496.00
2023-05-20T07:16:30.461Z,2688.00
2023-05-20T07:17:30.435Z,2840.00
2023-05-20T07:18:30.385Z,3020.00
2023-05-20T07:19:30.446Z,3156.00
2023-05-20T07:20:30.375Z,3280.00
2023-05-20T07:21:30.367Z,3332.00
2023-05-20T07:22:30.342Z,3364.00
2023-05-20T07:23:30.339Z,3348.00
2023-05-20T07:24:30.338Z,3312.00
2023-05-20T07:25:30.320Z,3320.00
2023-05-20T07:26:30.299Z,3308.00
2023-05-20T07:27:30.289Z,3324.00
2023-05-20T07:28:30.282Z,3280.00
2023-05-20T07:29:30.281Z,3236.00
2023-05-20T07:30:30.259Z,3212.00
2023-05-20T07:31:30.317Z,3208.00
2023-05-20T07:32:30.285Z,3228.00
2023-05-20T07:33:30.254Z,3252.00
2023-05-20T07:34:30.225Z,3304.00
2023-05-20T07:35:30.212Z,3308.00
2023-05-20T07:36:30.193Z,3228.00
2023-05-20T07:37:30.224Z,3124.00
2023-05-20T07:38:30.186Z,3016.00
2023-05-20T07:39:30.168Z,2928.00
2023-05-20T07:40:30.142Z,2868.00
2023-05-20T07:41:30.139Z,2820.00
2023-05-20T07:42:30.140Z,2796.00
2023-05-20T07:43:30.128Z,2788.00
2023-05-20T07:44:30.109Z,2804.00
2023-05-20T07:45:30.100Z,2804.00
2023-05-20T07:46:30.146Z,2832.00
2023-05-20T07:47:30.103Z,2740.00
2023-05-20T07:48:30.065Z,2864.00
2023-05-20T07:49:30.053Z,2884.00
2023-05-20T07:50:30.034Z,2904.00
2023-05-20T07:51:30.027Z,2936.00
2023-05-20T07:52:32.119Z,2952.00
2023-05-20T07:53:30.018Z,2976.00
2023-05-20T07:54:29.997Z,3004.00
2023-05-20T07:55:29.991Z,3032.00
2023-05-20T07:56:29.972Z,3072.00
2023-05-20T07:57:29.973Z,3116.00
2023-05-20T07:58:29.971Z,3156.00
2023-05-20T07:59:29.949Z,3236.00
2023-05-20T08:00:29.922Z,3324.00
2023-05-20T08:01:29.928Z,3428.00
2023-05-20T08:02:30.042Z,3508.00
2023-05-20T08:03:30.189Z,3588.00
2023-05-20T08:04:29.916Z,3600.00
2023-05-20T08:05:29.891Z,3660.00
2023-05-20T08:06:30.111Z,3716.00
2023-05-20T08:07:29.860Z,3740.00
2023-05-20T08:08:29.836Z,3844.00
2023-05-20T08:09:29.844Z,3976.00
2023-05-20T08:10:29.827Z,4112.00
2023-05-20T08:11:29.836Z,4208.00
2023-05-20T08:12:29.821Z,4300.00
2023-05-20T08:13:29.787Z,4340.00
2023-05-20T08:14:29.784Z,4380.00
2023-05-20T08:15:29.768Z,4432.00
2023-05-20T08:16:29.785Z,4516.00
2023-05-20T08:17:29.786Z,4592.00
2023-05-20T08:18:29.728Z,4492.00
2023-05-20T08:19:29.836Z,4484.00
2023-05-20T08:20:29.707Z,4452.00
2023-05-20T08:21:29.707Z,4412.00
2023-05-20T08:22:29.693Z,4332.00
2023-05-20T08:23:29.683Z,4328.00
2023-05-20T08:24:29.660Z,4348.00
2023-05-20T08:25:29.651Z,4396.00
2023-05-20T08:26:29.648Z,4364.00
2023-05-20T08:27:29.630Z,4300.00
2023-05-20T08:28:29.620Z,4204.00
2023-05-20T08:29:29.606Z,4244.00
2023-05-20T08:30:29.598Z,4284.00
2023-05-20T08:31:29.649Z,4216.00
2023-05-20T08:32:29.616Z,4272.00
2023-05-20T08:33:29.575Z,4336.00
2023-05-20T08:34:29.551Z,4432.00
2023-05-20T08:35:29.598Z,4532.00
2023-05-20T08:36:29.522Z,4728.00
2023-05-20T08:37:29.539Z,4476.00
2023-05-20T08:38:29.517Z,4368.00
2023-05-20T08:39:29.516Z,4388.00
2023-05-20T08:40:29.508Z,4396.00
2023-05-20T08:41:29.498Z,4476.00
2023-05-20T08:42:29.457Z,4244.00
2023-05-20T08:43:29.448Z,4272.00
2023-05-20T08:44:29.443Z,4344.00
2023-05-20T08:45:29.439Z,4376.00
2023-05-20T08:46:29.454Z,4428.00
2023-05-20T08:47:29.421Z,4492.00
2023-05-20T08:48:29.398Z,4540.00
2023-05-20T08:49:29.387Z,4580.00
2023-05-20T08:50:29.378Z,4648.00
2023-05-20T08:51:29.366Z,4708.00
2023-05-20T08:52:29.349Z,4712.00
2023-05-20T08:53:29.346Z,4692.00
2023-05-20T08:54:29.326Z,4704.00
2023-05-20T08:55:29.334Z,4708.00
2023-05-20T08:56:30.992Z,4732.00
2023-05-20T08:57:29.309Z,4756.00
2023-05-20T08:58:29.284Z,4832.00
2023-05-20T08:59:29.289Z,4900.00
2023-05-20T09:00:29.281Z,4948.00
2023-05-20T09:01:29.303Z,4988.00
2023-05-20T09:02:29.356Z,5172.00
2023-05-20T09:03:29.233Z,5188.00
2023-05-20T09:04:29.269Z,5380.00
2023-05-20T09:05:29.214Z,5280.00
2023-05-20T09:06:29.194Z,5188.00
2023-05-20T09:07:29.188Z,5064.00
2023-05-20T09:08:29.177Z,5000.00
2023-05-20T09:09:29.177Z,5068.00
2023-05-20T09:10:29.158Z,4852.00
2023-05-20T09:11:29.143Z,4608.00
2023-05-20T09:12:29.134Z,4564.00
2023-05-20T09:13:29.132Z,4744.00
2023-05-20T09:14:29.118Z,4588.00
2023-05-20T09:15:29.102Z,4436.00
2023-05-20T09:16:29.127Z,4540.00
2023-05-20T09:17:29.099Z,4684.00
2023-05-20T09:18:29.075Z,4656.00
2023-05-20T09:19:29.101Z,4736.00
2023-05-20T09:20:29.051Z,4756.00
2023-05-20T09:21:29.047Z,4732.00
2023-05-20T09:22:29.040Z,4804.00
2023-05-20T09:23:29.019Z,4840.00
2023-05-20T09:24:28.995Z,4988.00
2023-05-20T09:25:28.990Z,5164.00
2023-05-20T09:26:28.975Z,4988.00
2023-05-20T09:27:29.095Z,5024.00
2023-05-20T09:28:28.958Z,5176.00
2023-05-20T09:29:28.951Z,4860.00
2023-05-20T09:30:28.933Z,4724.00
2023-05-20T09:31:28.937Z,4364.00
2023-05-20T09:32:29.004Z,4248.00
2023-05-20T09:33:28.911Z,4148.00
2023-05-20T09:34:28.888Z,4136.00
2023-05-20T09:35:28.885Z,4044.00
2023-05-20T09:36:28.864Z,3956.00
2023-05-20T09:37:28.873Z,3988.00
2023-05-20T09:38:28.848Z,3940.00
2023-05-20T09:39:28.835Z,4000.00
2023-05-20T09:40:28.813Z,4248.00
2023-05-20T09:41:28.831Z,3984.00
2023-05-20T09:42:28.809Z,3884.00
2023-05-20T09:43:28.795Z,3928.00
2023-05-20T09:44:28.776Z,3948.00
2023-05-20T09:45:28.776Z,4036.00
2023-05-20T09:46:28.776Z,3928.00
2023-05-20T09:47:28.746Z,4168.00
2023-05-20T09:48:28.730Z,4200.00
2023-05-20T09:49:28.728Z,4340.00
2023-05-20T09:50:28.747Z,4148.00
2023-05-20T09:51:28.711Z,4352.00
2023-05-20T09:52:28.687Z,4176.00
2023-05-20T09:53:28.682Z,3808.00
2023-05-20T09:54:28.671Z,3728.00
2023-05-20T09:55:28.682Z,4024.00
2023-05-20T09:56:28.657Z,4304.00
2023-05-20T09:57:28.635Z,3508.00
2023-05-20T09:58:28.630Z,3420.00
2023-05-20T09:59:28.626Z,3304.00
2023-05-20T10:00:28.620Z,3700.00
2023-05-20T10:01:28.659Z,3452.00
2023-05-20T10:02:28.701Z,3648.00
2023-05-20T10:03:28.850Z,3416.00
2023-05-20T10:04:28.555Z,3128.00
2023-05-20T10:05:28.556Z,3312.00
2023-05-20T10:06:28.535Z,3340.00
2023-05-20T10:07:41.194Z,2760.00
2023-05-20T10:08:28.526Z,3212.00
2023-05-20T10:09:28.516Z,3304.00
2023-05-20T10:10:28.502Z,2864.00
2023-05-20T10:11:28.484Z,2648.00
2023-05-20T10:12:28.467Z,2620.00
2023-05-20T10:13:28.484Z,2636.00
2023-05-20T10:14:28.461Z,3224.00
2023-05-20T10:15:28.486Z,3132.00
2023-05-20T10:16:28.551Z,3184.00
2023-05-20T10:17:28.476Z,3404.00
2023-05-20T10:18:28.402Z,3304.00
2023-05-20T10:19:28.910Z,3064.00
2023-05-20T10:20:28.389Z,2880.00
2023-05-20T10:21:28.383Z,3180.00
2023-05-20T10:22:28.376Z,3060.00
2023-05-20T10:23:28.385Z,2932.00
2023-05-20T10:24:28.352Z,2824.00
2023-05-20T10:25:28.362Z,2884.00
2023-05-20T10:26:28.325Z,3100.00
2023-05-20T10:27:28.312Z,2920.00
2023-05-20T10:28:28.304Z,2808.00
2023-05-20T10:29:28.324Z,3008.00
2023-05-20T10:30:28.272Z,2908.00
2023-05-20T10:31:28.270Z,2956.00
2023-05-20T10:32:28.356Z,2808.00
2023-05-20T10:33:28.369Z,2856.00
2023-05-20T10:34:28.234Z,2976.00
2023-05-20T10:35:28.230Z,3384.00
2023-05-20T10:36:28.207Z,3824.00
2023-05-20T10:37:28.210Z,3704.00
2023-05-20T10:38:28.197Z,3980.00
2023-05-20T10:39:28.178Z,3764.00
2023-05-20T10:40:28.159Z,3904.00
2023-05-20T10:41:28.154Z,4292.00
2023-05-20T10:42:28.161Z,3920.00
2023-05-20T10:43:28.138Z,3012.00
2023-05-20T10:44:28.116Z,2604.00
2023-05-20T10:45:28.110Z,2492.00
2023-05-20T10:46:36.707Z,2476.00
2023-05-20T10:47:28.151Z,2468.00
2023-05-20T10:48:28.155Z,2580.00
2023-05-20T10:49:28.187Z,2868.00
2023-05-20T10:50:28.064Z,3172.00
2023-05-20T10:51:28.045Z,3364.00
2023-05-20T10:52:28.038Z,3356.00
2023-05-20T10:53:33.925Z,2868.00
2023-05-20T10:54:28.008Z,2500.00
2023-05-20T10:55:27.999Z,2420.00
2023-05-20T10:56:27.986Z,2452.00
2023-05-20T10:57:27.994Z,2820.00
2023-05-20T10:58:27.965Z,3480.00
2023-05-20T10:59:27.956Z,3416.00
2023-05-20T11:00:27.940Z,3056.00
2023-05-20T11:01:27.956Z,3156.00
2023-05-20T11:02:27.977Z,2880.00
2023-05-20T11:03:27.981Z,2572.00
2023-05-20T11:04:27.911Z,1904.00
2023-05-20T11:05:27.897Z,2536.00
2023-05-20T11:06:27.885Z,2272.00
2023-05-20T11:07:27.895Z,2828.00
2023-05-20T11:08:29.376Z,2224.00
2023-05-20T11:09:27.853Z,2616.00
2023-05-20T11:10:27.844Z,2696.00
2023-05-20T11:11:27.835Z,2648.00
2023-05-20T11:12:27.847Z,2560.00
2023-05-20T11:13:27.849Z,2712.00
2023-05-20T11:14:27.781Z,2904.00
2023-05-20T11:15:27.796Z,2764.00
2023-05-20T11:16:27.839Z,3112.00
2023-05-20T11:17:27.838Z,3392.00
2023-05-20T11:18:27.745Z,3416.00
2023-05-20T11:19:27.850Z,3180.00
2023-05-20T11:20:27.739Z,3192.00
2023-05-20T11:21:27.720Z,3104.00
2023-05-20T11:22:27.705Z,2980.00
2023-05-20T11:23:27.698Z,2552.00
2023-05-20T11:24:27.739Z,2308.00
2023-05-20T11:25:27.697Z,1904.00
2023-05-20T11:26:27.659Z,1892.00
2023-05-20T11:27:27.651Z,1992.00
2023-05-20T11:28:27.644Z,2588.00
2023-05-20T11:29:27.645Z,2916.00
2023-05-20T11:30:27.649Z,2928.00
2023-05-20T11:31:27.622Z,2712.00
2023-05-20T11:32:27.712Z,2720.00
2023-05-20T11:33:27.602Z,2720.00
2023-05-20T11:34:29.332Z,2644.00
2023-05-20T11:35:27.574Z,2568.00
2023-05-20T11:36:28.317Z,2564.00
2023-05-20T11:37:27.553Z,2948.00
2023-05-20T11:38:27.542Z,3584.00
2023-05-20T11:39:27.560Z,3904.00
2023-05-20T11:40:30.652Z,4036.00
2023-05-20T11:41:27.517Z,3956.00
2023-05-20T11:42:27.484Z,3856.00
2023-05-20T11:43:27.476Z,3652.00
2023-05-20T11:44:27.468Z,3504.00
2023-05-20T11:45:27.469Z,3116.00
2023-05-20T11:46:27.508Z,3004.00
2023-05-20T11:47:27.520Z,3200.00
2023-05-20T11:48:27.431Z,2892.00
2023-05-20T11:49:27.469Z,2916.00
2023-05-20T11:50:27.394Z,2872.00
2023-05-20T11:51:27.387Z,2956.00
2023-05-20T11:52:27.370Z,3064.00
2023-05-20T11:53:27.360Z,2952.00
2023-05-20T11:54:27.357Z,2792.00
2023-05-20T11:55:27.344Z,2688.00
2023-05-20T11:56:27.328Z,2516.00
2023-05-20T11:57:27.322Z,2760.00
2023-05-20T11:58:27.330Z,2884.00
2023-05-20T11:59:27.313Z,3264.00
2023-05-20T12:00:31.223Z,3656.00
2023-05-20T12:01:27.579Z,3748.00
2023-05-20T12:02:27.368Z,4196.00
2023-05-20T12:03:27.402Z,4368.00
2023-05-20T12:04:27.274Z,4280.00
2023-05-20T12:05:27.235Z,4032.00
2023-05-20T12:06:27.210Z,3848.00
2023-05-20T12:07:27.211Z,3788.00
2023-05-20T12:08:27.238Z,3600.00
2023-05-20T12:09:27.193Z,3464.00
2023-05-20T12:10:27.202Z,3244.00
2023-05-20T12:11:27.204Z,3360.00
2023-05-20T12:12:27.155Z,3600.00
2023-05-20T12:13:27.163Z,3548.00
2023-05-20T12:14:27.132Z,3804.00
2023-05-20T12:15:27.125Z,3952.00
2023-05-20T12:16:27.134Z,4132.00
2023-05-20T12:17:27.137Z,4360.00
2023-05-20T12:18:27.098Z,4296.00
2023-05-20T12:19:27.172Z,4200.00
2023-05-20T12:20:27.070Z,4472.00
2023-05-20T12:21:27.065Z,4352.00
2023-05-20T12:22:27.060Z,4316.00
2023-05-20T12:23:27.054Z,4360.00
2023-05-20T12:24:27.017Z,4460.00
2023-05-20T12:25:27.011Z,4724.00
2023-05-20T12:26:26.994Z,4600.00